Aviation Digital Data Service (ADDS)

Output produced by METARs form (1906 UTC 22 August 2017)
found at http://aviationweather.gov/adds/metars/
 
KINT 221739Z 2218/2318 23008KT P6SM SCT040 BKN250 
     TEMPO 2316/2318 3SM SHRA BKN050